Time;durP1;ratioP1;P1;durP2;ratioP2;P2;SDS_P1;SDS_P2;PMS_P1;PMS_P2;Temp;Humidity;BMP_temperature;BMP_pressure;BME280_temperature;BME280_humidity;BME280_pressure;Samples;Min_cycle;Max_cycle;Signal;HPM_P1;HPM_P2
2024/02/03 00:00:14;;;;;;;0.75;0.40;;;11.90;99.90;;;;;;4948912;28;20058;-79
2024/02/03 00:02:41;;;;;;;0.40;0.20;;;11.90;99.90;;;;;;4946926;28;20050;-79
2024/02/03 00:05:08;;;;;;;0.60;0.38;;;11.90;99.90;;;;;;4964026;28;20529;-80
2024/02/03 00:07:36;;;;;;;0.35;0.25;;;11.90;99.90;;;;;;4969108;28;20050;-79
2024/02/03 00:10:06;;;;;;;1.20;0.30;;;11.90;99.90;;;;;;4964699;28;20066;-80
2024/02/03 00:12:33;;;;;;;0.95;0.35;;;11.90;99.90;;;;;;4963711;28;20084;-80
2024/02/03 00:15:01;;;;;;;0.55;0.30;;;11.90;99.90;;;;;;4948075;28;20667;-79
2024/02/03 00:17:28;;;;;;;1.55;0.60;;;11.80;99.90;;;;;;4981175;28;20062;-79
2024/02/03 00:19:56;;;;;;;0.75;0.32;;;11.80;99.90;;;;;;4980768;28;20499;-79
2024/02/03 00:22:23;;;;;;;0.20;0.20;;;11.80;99.90;;;;;;4962362;28;20089;-79
2024/02/03 00:24:50;;;;;;;2.20;0.40;;;11.80;99.90;;;;;;4979474;28;20050;-80
2024/02/03 00:27:18;;;;;;;1.63;0.40;;;11.70;99.90;;;;;;4964202;28;20054;-78
2024/02/03 00:29:45;;;;;;;0.20;0.20;;;11.70;99.90;;;;;;4968350;28;20050;-80
2024/02/03 00:32:13;;;;;;;0.95;0.40;;;11.70;99.90;;;;;;4967470;28;20050;-78
2024/02/03 00:34:41;;;;;;;0.70;0.40;;;11.70;99.90;;;;;;4972246;28;20054;-79
2024/02/03 00:37:10;;;;;;;0.70;0.30;;;11.60;1.00;;;;;;4983600;28;20065;-79
2024/02/03 00:39:41;;;;;;;0.32;0.30;;;11.60;1.00;;;;;;4967555;28;20058;-79
2024/02/03 00:42:08;;;;;;;0.25;0.25;;;11.50;1.00;;;;;;4951241;28;20052;-79
2024/02/03 00:44:36;;;;;;;0.50;0.30;;;11.50;1.00;;;;;;4967426;28;20051;-79
2024/02/03 00:47:03;;;;;;;0.98;0.50;;;11.50;59.90;;;;;;4985123;28;20066;-79
2024/02/03 00:49:30;;;;;;;2.15;0.40;;;11.40;99.90;;;;;;4984492;28;20126;-79
2024/02/03 00:51:58;;;;;;;0.30;0.30;;;11.40;99.90;;;;;;4966784;28;20154;-78
2024/02/03 00:54:25;;;;;;;0.77;0.20;;;11.40;99.90;;;;;;4965677;28;20050;-79
2024/02/03 00:56:52;;;;;;;0.70;0.40;;;11.30;99.90;;;;;;4967336;28;20602;-79
2024/02/03 00:59:18;;;;;;;0.50;0.20;;;11.30;99.90;;;;;;4966714;28;20046;-78
2024/02/03 01:01:46;;;;;;;0.63;0.30;;;11.30;99.90;;;;;;4957349;28;20095;-79
2024/02/03 01:04:13;;;;;;;0.30;0.30;;;11.30;1.00;;;;;;4978687;28;20136;-79
2024/02/03 01:06:41;;;;;;;0.28;0.28;;;11.20;1.00;;;;;;4951744;28;20121;-78
2024/02/03 01:09:08;;;;;;;1.00;0.30;;;11.20;50.30;;;;;;4949797;28;20051;-78
2024/02/03 01:11:35;;;;;;;0.20;0.20;;;11.20;99.90;;;;;;4967387;28;20054;-78
2024/02/03 01:14:02;;;;;;;0.20;0.20;;;11.20;99.90;;;;;;4966503;28;20632;-79
2024/02/03 01:16:29;;;;;;;0.60;0.30;;;11.20;99.90;;;;;;4966912;28;20136;-78
2024/02/03 01:18:57;;;;;;;0.57;0.30;;;11.20;99.90;;;;;;4966526;28;20050;-79
2024/02/03 01:21:24;;;;;;;0.50;0.38;;;11.20;99.90;;;;;;4966507;28;20050;-78
2024/02/03 01:23:54;;;;;;;0.40;0.20;;;11.10;99.90;;;;;;4963452;28;20077;-80
2024/02/03 01:26:21;;;;;;;0.50;0.30;;;11.10;99.90;;;;;;4983125;28;20082;-78
2024/02/03 01:28:48;;;;;;;0.60;0.30;;;11.10;99.90;;;;;;4973648;28;20137;-79
2024/02/03 01:31:15;;;;;;;0.50;0.40;;;11.10;1.00;;;;;;4967036;28;20426;-79
2024/02/03 01:33:42;;;;;;;0.32;0.20;;;11.10;1.00;;;;;;4974983;28;20061;-80
2024/02/03 01:36:12;;;;;;;0.30;0.20;;;11.00;1.00;;;;;;4953500;28;20549;-79
2024/02/03 01:38:47;;;;;;;0.22;0.22;;;11.00;1.00;;;;;;4965313;28;20164;-78
2024/02/03 01:41:14;;;;;;;0.80;0.30;;;11.00;1.00;;;;;;4949978;28;20498;-80
2024/02/03 01:43:42;;;;;;;0.55;0.20;;;11.00;1.00;;;;;;4966154;28;20054;-79
2024/02/03 01:46:09;;;;;;;1.90;0.55;;;11.00;1.00;;;;;;4966368;28;20058;-78
2024/02/03 01:48:37;;;;;;;0.52;0.20;;;11.00;1.00;;;;;;4950374;28;20050;-78
2024/02/03 01:51:05;;;;;;;0.40;0.20;;;11.00;1.00;;;;;;4950024;28;20058;-79
2024/02/03 01:53:33;;;;;;;0.47;0.20;;;11.00;1.00;;;;;;4962244;28;20122;-80
2024/02/03 01:56:00;;;;;;;0.82;0.30;;;11.00;1.00;;;;;;4947554;28;20518;-80
2024/02/03 01:58:27;;;;;;;0.95;0.47;;;11.10;1.00;;;;;;4965992;28;20054;-77
2024/02/03 02:00:55;;;;;;;1.52;0.50;;;11.10;1.00;;;;;;4949435;28;20490;-79
2024/02/03 02:03:22;;;;;;;0.63;0.43;;;11.10;1.00;;;;;;4964187;28;20144;-81
2024/02/03 02:05:49;;;;;;;0.52;0.40;;;11.10;99.90;;;;;;4964007;28;20046;-78
2024/02/03 02:08:16;;;;;;;0.90;0.30;;;11.20;99.90;;;;;;4961099;28;20407;-79
2024/02/03 02:10:43;;;;;;;0.40;0.32;;;11.20;99.90;;;;;;4964853;28;20050;-79
2024/02/03 02:13:10;;;;;;;0.85;0.30;;;11.30;99.90;;;;;;4983671;28;20057;-77
2024/02/03 02:15:37;;;;;;;2.22;0.50;;;11.40;99.90;;;;;;4967354;28;20059;-77
2024/02/03 02:18:05;;;;;;;1.17;0.45;;;11.40;54.60;;;;;;4967096;28;20069;-78
2024/02/03 02:20:32;;;;;;;0.70;0.30;;;11.40;1.00;;;;;;4967565;28;20101;-78
2024/02/03 02:22:59;;;;;;;0.93;0.35;;;11.50;1.00;;;;;;4965781;28;20100;-78
2024/02/03 02:25:26;;;;;;;0.52;0.40;;;11.50;99.90;;;;;;4967668;28;20057;-77
2024/02/03 02:27:53;;;;;;;0.20;0.20;;;11.50;99.90;;;;;;4967643;28;20136;-79
2024/02/03 02:33:01;;;;;;;0.63;0.50;;;11.40;99.90;;;;;;4979819;28;20261;-87
2024/02/03 02:35:28;;;;;;;1.45;0.60;;;11.40;99.20;;;;;;4942181;28;20070;-87
2024/02/03 02:37:56;;;;;;;2.15;0.52;;;11.30;56.20;;;;;;4952053;28;20054;-88
2024/02/03 02:40:22;;;;;;;0.63;0.40;;;11.30;14.30;;;;;;4961868;28;20051;-87
2024/02/03 02:42:50;;;;;;;0.55;0.22;;;11.30;1.00;;;;;;4945311;28;20055;-87
2024/02/03 02:45:17;;;;;;;1.40;0.40;;;11.30;1.00;;;;;;4977969;28;20116;-89
2024/02/03 02:47:44;;;;;;;0.50;0.30;;;11.40;1.00;;;;;;4960960;28;20078;-87
2024/02/03 02:50:11;;;;;;;1.15;0.63;;;11.40;1.00;;;;;;4972621;28;20141;-88
2024/02/03 02:52:38;;;;;;;2.25;0.60;;;11.40;1.00;;;;;;4954444;28;20061;-88
2024/02/03 02:55:05;;;;;;;0.60;0.32;;;11.40;1.00;;;;;;4937404;28;20442;-87
2024/02/03 02:57:32;;;;;;;0.47;0.40;;;11.30;1.00;;;;;;4938411;28;20055;-87
2024/02/03 02:59:59;;;;;;;0.63;0.38;;;11.30;1.00;;;;;;4929541;28;20146;-88
2024/02/03 03:02:26;;;;;;;0.70;0.30;;;11.30;1.00;;;;;;4942243;28;20058;-87
2024/02/03 03:04:53;;;;;;;0.35;0.22;;;11.20;1.00;;;;;;4956419;28;20066;-87
2024/02/03 03:07:23;;;;;;;0.32;0.32;;;11.20;2.00;;;;;;4955972;28;20077;-87
2024/02/03 03:09:51;;;;;;;0.52;0.30;;;11.30;7.40;;;;;;4971903;28;20050;-87
2024/02/03 03:12:18;;;;;;;0.52;0.30;;;11.30;1.00;;;;;;4956604;28;20053;-87
2024/02/03 03:14:45;;;;;;;0.68;0.30;;;11.30;1.00;;;;;;4939998;28;20081;-87
2024/02/03 03:17:12;;;;;;;1.17;0.77;;;11.30;1.00;;;;;;4956453;28;20068;-87
2024/02/03 03:19:39;;;;;;;0.52;0.22;;;11.40;1.00;;;;;;4955835;28;20054;-87
2024/02/03 03:22:08;;;;;;;0.55;0.38;;;11.40;1.00;;;;;;4956877;28;20050;-88
2024/02/03 03:24:34;;;;;;;1.20;0.65;;;11.40;1.00;;;;;;4991362;28;20390;-87
2024/02/03 03:27:01;;;;;;;1.25;0.40;;;11.50;99.90;;;;;;4961034;28;20050;-88
2024/02/03 03:29:28;;;;;;;0.77;0.38;;;11.50;99.90;;;;;;4960695;28;20377;-88
2024/02/03 03:31:55;;;;;;;0.63;0.38;;;11.60;99.90;;;;;;4961033;28;20070;-88
2024/02/03 03:34:22;;;;;;;0.77;0.30;;;11.60;99.90;;;;;;4960410;28;20050;-88
2024/02/03 03:36:49;;;;;;;0.60;0.30;;;11.60;99.90;;;;;;4977201;28;20094;-88
2024/02/03 03:39:16;;;;;;;0.35;0.35;;;11.60;99.90;;;;;;4972451;28;20504;-87
2024/02/03 03:41:43;;;;;;;1.25;0.98;;;11.60;99.90;;;;;;4960627;28;20376;-87
2024/02/03 03:44:10;;;;;;;1.48;0.40;;;11.60;99.90;;;;;;4960905;28;20380;-88
2024/02/03 03:46:38;;;;;;;2.25;0.60;;;11.70;99.90;;;;;;4960533;28;20058;-88
2024/02/03 03:49:05;;;;;;;2.42;0.30;;;11.70;99.90;;;;;;4960243;28;20054;-87
2024/02/03 03:51:32;;;;;;;0.73;0.43;;;11.70;99.90;;;;;;4956543;28;20072;-87
2024/02/03 03:53:59;;;;;;;0.40;0.30;;;11.70;99.90;;;;;;4974896;28;20066;-87
2024/02/03 03:56:28;;;;;;;0.47;0.40;;;11.70;99.90;;;;;;4944540;28;20046;-87
2024/02/03 03:58:54;;;;;;;0.60;0.38;;;11.70;99.90;;;;;;4960788;28;20058;-88
2024/02/03 04:01:21;;;;;;;0.80;0.35;;;11.70;99.90;;;;;;4960416;28;20083;-88
2024/02/03 04:03:48;;;;;;;1.50;0.47;;;11.80;99.90;;;;;;4959541;28;20046;-88
2024/02/03 04:06:15;;;;;;;0.30;0.30;;;11.70;99.90;;;;;;4975959;28;20101;-88
2024/02/03 04:08:43;;;;;;;1.50;0.40;;;11.80;99.90;;;;;;4976700;28;20057;-88
2024/02/03 04:11:10;;;;;;;1.33;0.50;;;11.70;99.90;;;;;;4976826;28;20062;-88
2024/02/03 04:13:39;;;;;;;1.27;0.50;;;11.80;99.90;;;;;;4953157;28;20055;-87
2024/02/03 04:16:06;;;;;;;0.60;0.45;;;11.80;99.90;;;;;;4941706;28;20082;-88
2024/02/03 04:18:33;;;;;;;0.80;0.40;;;11.80;99.90;;;;;;4957240;28;20058;-88
2024/02/03 04:21:00;;;;;;;0.70;0.52;;;11.80;99.90;;;;;;4941750;28;20127;-88
2024/02/03 04:23:27;;;;;;;0.38;0.30;;;11.80;99.90;;;;;;4946445;28;20141;-88
2024/02/03 04:25:55;;;;;;;1.35;0.40;;;11.80;99.90;;;;;;4960935;28;20059;-88
2024/02/03 04:28:23;;;;;;;1.65;0.40;;;11.80;99.90;;;;;;4961127;28;20137;-88
2024/02/03 04:30:50;;;;;;;1.45;0.50;;;11.80;99.90;;;;;;4961348;28;20073;-88
2024/02/03 04:33:19;;;;;;;0.68;0.40;;;11.80;99.90;;;;;;4955429;28;20047;-87
2024/02/03 04:35:46;;;;;;;1.17;0.47;;;11.80;99.90;;;;;;4954209;28;20050;-89
2024/02/03 04:38:13;;;;;;;0.95;0.35;;;11.80;99.90;;;;;;4967263;28;20537;-88
2024/02/03 04:40:41;;;;;;;0.57;0.47;;;11.80;99.90;;;;;;4964372;28;20438;-89
2024/02/03 04:43:08;;;;;;;1.23;0.45;;;11.80;99.90;;;;;;4974035;28;20050;-88
2024/02/03 04:45:35;;;;;;;0.73;0.50;;;11.80;99.90;;;;;;4976085;28;20067;-88
2024/02/03 04:48:02;;;;;;;0.93;0.40;;;11.80;99.90;;;;;;4975255;28;20154;-88
2024/02/03 04:50:30;;;;;;;1.77;0.45;;;11.80;99.90;;;;;;4942947;28;20097;-88
2024/02/03 04:53:00;;;;;;;1.83;0.80;;;11.80;99.90;;;;;;4939015;28;20137;-88
2024/02/03 04:55:27;;;;;;;0.50;0.32;;;11.80;99.90;;;;;;4957687;28;20054;-88
2024/02/03 04:57:54;;;;;;;1.67;0.50;;;11.80;99.90;;;;;;4939825;28;20521;-88
2024/02/03 05:00:23;;;;;;;2.88;0.30;;;11.80;99.90;;;;;;4951531;28;20050;-88
2024/02/03 05:02:50;;;;;;;1.40;0.45;;;11.80;99.90;;;;;;4944976;28;20128;-88
2024/02/03 05:05:17;;;;;;;0.82;0.60;;;11.80;99.90;;;;;;4944474;28;20046;-89
2024/02/03 05:07:46;;;;;;;1.00;0.40;;;11.80;99.90;;;;;;4975941;28;20050;-88
2024/02/03 05:10:13;;;;;;;0.70;0.30;;;11.90;99.90;;;;;;4940834;28;20082;-87
2024/02/03 05:12:40;;;;;;;0.40;0.30;;;11.90;99.90;;;;;;4941088;28;20054;-87
2024/02/03 05:15:08;;;;;;;1.05;0.40;;;11.90;99.90;;;;;;4945690;28;20062;-88
2024/02/03 05:17:36;;;;;;;1.27;0.73;;;11.90;99.90;;;;;;4944656;28;20058;-88
2024/02/03 05:20:05;;;;;;;0.73;0.40;;;11.90;99.90;;;;;;4944261;28;20062;-88
2024/02/03 05:22:32;;;;;;;2.08;0.32;;;11.90;99.90;;;;;;4943836;28;20137;-88
2024/02/03 05:25:00;;;;;;;0.45;0.30;;;11.90;99.90;;;;;;4943169;28;20149;-89
2024/02/03 05:27:27;;;;;;;0.45;0.45;;;11.90;99.90;;;;;;4979467;28;20061;-89
2024/02/03 05:29:55;;;;;;;1.15;0.40;;;11.90;99.90;;;;;;4958386;28;20113;-88
2024/02/03 05:32:22;;;;;;;2.45;0.80;;;11.90;99.90;;;;;;4958354;28;20066;-88
2024/02/03 05:34:49;;;;;;;0.98;0.50;;;11.90;99.90;;;;;;4958962;28;20061;-88
2024/02/03 05:37:16;;;;;;;1.23;0.57;;;11.90;99.90;;;;;;4944110;28;20057;-88
2024/02/03 05:39:44;;;;;;;1.20;0.60;;;11.80;99.90;;;;;;4941233;28;20133;-88
2024/02/03 05:42:11;;;;;;;1.83;0.55;;;11.80;99.90;;;;;;4955710;28;20086;-87
2024/02/03 05:44:38;;;;;;;1.73;0.70;;;11.80;99.90;;;;;;4978099;28;20549;-87
2024/02/03 05:47:05;;;;;;;1.27;0.45;;;11.90;99.90;;;;;;4978701;28;20265;-87
2024/02/03 05:49:33;;;;;;;1.63;0.60;;;11.90;99.90;;;;;;4979232;28;20060;-88
2024/02/03 05:52:00;;;;;;;0.73;0.40;;;11.80;99.90;;;;;;4978593;28;20052;-89
2024/02/03 05:54:27;;;;;;;0.52;0.32;;;11.90;99.90;;;;;;4978360;28;20058;-88
2024/02/03 05:56:54;;;;;;;1.33;0.50;;;11.90;99.90;;;;;;4963146;28;20053;-87
2024/02/03 05:59:21;;;;;;;0.75;0.30;;;11.80;99.90;;;;;;4978385;28;20069;-87
2024/02/03 06:02:05;;;;;;;0.77;0.32;;;11.90;99.90;;;;;;4980191;28;20061;-88
2024/02/03 06:04:32;;;;;;;0.98;0.52;;;11.90;99.90;;;;;;4960536;28;20055;-88
2024/02/03 06:07:00;;;;;;;0.93;0.32;;;11.90;99.90;;;;;;4976003;28;20082;-88
2024/02/03 06:09:28;;;;;;;1.17;0.43;;;11.80;99.90;;;;;;4976487;28;20201;-88
2024/02/03 06:11:55;;;;;;;0.47;0.40;;;11.80;99.90;;;;;;4976966;28;20541;-88
2024/02/03 06:14:23;;;;;;;0.40;0.30;;;11.80;99.90;;;;;;4972136;28;20057;-88
2024/02/03 06:16:53;;;;;;;1.65;0.60;;;11.80;99.90;;;;;;4969845;28;20046;-88
2024/02/03 06:19:21;;;;;;;0.75;0.30;;;11.80;99.90;;;;;;4963741;28;20125;-88
2024/02/03 06:21:48;;;;;;;0.45;0.20;;;11.80;99.90;;;;;;4976925;28;20106;-89
2024/02/03 06:24:15;;;;;;;0.63;0.40;;;11.80;99.90;;;;;;4937400;28;20133;-89
2024/02/03 06:26:42;;;;;;;0.30;0.30;;;11.80;99.90;;;;;;4975610;28;20046;-86
2024/02/03 06:29:10;;;;;;;1.15;0.32;;;11.80;99.90;;;;;;4975992;28;20073;-88
2024/02/03 06:31:38;;;;;;;0.28;0.28;;;11.80;99.90;;;;;;4972984;28;20059;-87
2024/02/03 06:34:05;;;;;;;2.08;0.82;;;11.80;99.90;;;;;;4959711;28;20065;-87
2024/02/03 06:36:32;;;;;;;0.82;0.32;;;11.80;99.90;;;;;;4937403;29;20059;-88
2024/02/03 06:38:59;;;;;;;0.68;0.30;;;11.80;99.90;;;;;;4951623;28;20169;-88
2024/02/03 06:41:26;;;;;;;0.73;0.30;;;11.80;99.90;;;;;;4972449;28;20057;-88
2024/02/03 06:43:53;;;;;;;0.77;0.40;;;11.80;99.90;;;;;;4972737;28;20502;-88
2024/02/03 06:46:21;;;;;;;1.02;0.30;;;11.80;99.90;;;;;;4958440;28;20060;-88
2024/02/03 06:48:48;;;;;;;1.35;0.50;;;11.80;99.90;;;;;;4971764;28;20051;-88
2024/02/03 06:51:15;;;;;;;0.82;0.25;;;11.90;99.90;;;;;;4972368;28;20051;-87
2024/02/03 06:53:42;;;;;;;0.30;0.28;;;11.80;99.90;;;;;;4971430;28;20266;-87
2024/02/03 06:56:09;;;;;;;0.68;0.38;;;11.80;99.90;;;;;;4973183;28;20051;-87
2024/02/03 06:58:37;;;;;;;1.50;0.50;;;11.80;99.90;;;;;;4954738;28;20058;-87
2024/02/03 07:01:04;;;;;;;0.82;0.30;;;11.70;99.90;;;;;;4972920;28;20363;-87
2024/02/03 07:03:31;;;;;;;0.77;0.20;;;11.70;99.90;;;;;;4966641;28;20050;-87
2024/02/03 07:05:58;;;;;;;0.20;0.20;;;11.70;99.90;;;;;;4953901;28;20186;-87
2024/02/03 07:08:25;;;;;;;0.52;0.32;;;11.80;99.90;;;;;;4971218;28;20051;-88
2024/02/03 07:10:53;;;;;;;0.45;0.35;;;11.70;99.90;;;;;;4970970;28;20109;-88
2024/02/03 07:13:22;;;;;;;0.70;0.28;;;11.80;99.90;;;;;;4968920;28;20054;-88
2024/02/03 07:15:51;;;;;;;1.27;0.30;;;11.80;99.90;;;;;;4954716;28;20059;-88
2024/02/03 07:18:21;;;;;;;0.82;0.30;;;11.80;99.90;;;;;;4965499;28;20105;-88
2024/02/03 07:20:48;;;;;;;1.27;0.35;;;11.80;99.90;;;;;;4956205;28;20070;-89
2024/02/03 07:23:16;;;;;;;1.38;0.40;;;11.80;99.90;;;;;;4964598;28;20154;-88
2024/02/03 07:25:43;;;;;;;0.25;0.25;;;11.80;99.90;;;;;;4962548;28;20050;-88
2024/02/03 07:28:10;;;;;;;0.65;0.32;;;11.80;99.90;;;;;;4955180;28;20074;-89
2024/02/03 07:30:37;;;;;;;0.50;0.38;;;11.80;99.90;;;;;;4955498;28;20249;-88
2024/02/03 07:33:07;;;;;;;0.52;0.30;;;11.80;99.90;;;;;;4958594;28;20077;-89
2024/02/03 07:35:35;;;;;;;0.52;0.25;;;11.80;99.90;;;;;;4959317;28;20143;-88
2024/02/03 07:38:05;;;;;;;0.63;0.28;;;11.80;99.90;;;;;;4958953;28;20062;-89
2024/02/03 07:40:33;;;;;;;0.40;0.30;;;11.80;99.90;;;;;;4958788;28;20053;-89
2024/02/03 07:43:00;;;;;;;0.40;0.38;;;11.80;99.90;;;;;;4958405;28;20475;-89
2024/02/03 07:45:27;;;;;;;0.95;0.30;;;11.70;99.90;;;;;;4971746;28;20528;-89
2024/02/03 07:47:54;;;;;;;0.57;0.43;;;11.70;99.90;;;;;;4977506;28;20129;-88
2024/02/03 07:50:21;;;;;;;1.00;0.40;;;11.70;99.90;;;;;;4975013;28;20050;-89
2024/02/03 07:52:50;;;;;;;0.20;0.20;;;11.70;99.90;;;;;;4977377;28;20081;-88
2024/02/03 07:55:17;;;;;;;0.80;0.40;;;11.80;99.90;;;;;;4950823;28;20057;-90
2024/02/03 07:57:44;;;;;;;0.35;0.30;;;11.80;99.90;;;;;;4958852;28;20073;-89
2024/02/03 08:00:16;;;;;;;0.20;0.20;;;11.80;99.90;;;;;;4958110;28;20051;-88
2024/02/03 08:02:44;;;;;;;0.30;0.30;;;11.90;99.90;;;;;;4955336;28;20090;-88
2024/02/03 08:05:11;;;;;;;0.93;0.40;;;11.90;99.90;;;;;;4941743;28;20046;-88
2024/02/03 08:07:39;;;;;;;1.15;0.30;;;11.90;99.90;;;;;;4939174;28;20098;-88
2024/02/03 08:10:07;;;;;;;0.73;0.40;;;11.90;99.90;;;;;;4974780;28;20057;-88
2024/02/03 08:12:35;;;;;;;0.60;0.30;;;12.00;99.90;;;;;;4955495;28;20051;-90
2024/02/03 08:15:02;;;;;;;0.68;0.30;;;12.00;99.90;;;;;;4979816;28;20042;-88
2024/02/03 08:17:29;;;;;;;1.00;0.40;;;12.00;99.90;;;;;;4958794;28;20057;-92
2024/02/03 08:19:57;;;;;;;0.65;0.22;;;12.00;99.90;;;;;;4956434;28;20097;-88
2024/02/03 08:22:24;;;;;;;0.47;0.35;;;12.00;99.90;;;;;;4971072;28;20135;-89
2024/02/03 08:24:51;;;;;;;0.32;0.30;;;12.00;99.90;;;;;;4957235;28;20051;-89
2024/02/03 08:27:18;;;;;;;0.60;0.40;;;12.00;99.90;;;;;;4943146;28;20058;-90
2024/02/03 08:29:45;;;;;;;0.45;0.30;;;12.10;99.90;;;;;;4956356;28;20046;-88
2024/02/03 08:32:13;;;;;;;2.33;0.40;;;12.10;99.90;;;;;;4968290;28;20112;-87
2024/02/03 08:34:41;;;;;;;1.13;0.75;;;12.10;99.90;;;;;;4971021;28;20141;-88
2024/02/03 08:37:28;;;;;;;0.65;0.52;;;12.10;99.90;;;;;;4938989;28;20499;-89
2024/02/03 08:39:55;;;;;;;1.17;0.32;;;12.10;99.90;;;;;;4946336;28;21125;-87
2024/02/03 08:42:23;;;;;;;0.30;0.30;;;12.10;99.90;;;;;;4962919;28;20463;-87
2024/02/03 08:44:52;;;;;;;0.43;0.30;;;12.20;99.90;;;;;;4938633;28;20650;-89
2024/02/03 08:47:19;;;;;;;0.80;0.50;;;12.20;99.90;;;;;;4959921;28;20056;-89
2024/02/03 08:49:59;;;;;;;0.63;0.40;;;12.20;99.90;;;;;;4945790;28;20054;-88
2024/02/03 08:52:27;;;;;;;0.80;0.40;;;12.30;99.90;;;;;;4963822;28;20486;-89
2024/02/03 08:54:55;;;;;;;0.80;0.50;;;12.30;99.90;;;;;;4958161;28;20058;-88
2024/02/03 08:57:22;;;;;;;0.82;0.65;;;12.40;99.90;;;;;;4968591;28;20132;-88
2024/02/03 08:59:53;;;;;;;1.02;0.52;;;12.40;99.90;;;;;;4938541;28;20089;-87
2024/02/03 09:02:20;;;;;;;1.00;0.45;;;12.40;99.90;;;;;;4942851;28;20050;-89
2024/02/03 09:04:47;;;;;;;1.17;0.55;;;12.40;99.90;;;;;;4931572;28;20054;-87
2024/02/03 09:07:15;;;;;;;1.25;0.22;;;12.40;99.90;;;;;;4930255;28;20075;-87
2024/02/03 09:09:43;;;;;;;0.77;0.50;;;12.40;99.90;;;;;;4970446;28;20085;-87
2024/02/03 09:12:11;;;;;;;1.27;0.20;;;12.50;99.90;;;;;;4934713;28;20082;-88
2024/02/03 09:14:37;;;;;;;0.68;0.35;;;12.60;99.90;;;;;;4945002;28;20068;-88
2024/02/03 09:17:04;;;;;;;1.55;0.63;;;12.60;99.90;;;;;;4942961;28;20406;-86
2024/02/03 09:19:31;;;;;;;0.50;0.30;;;12.60;99.90;;;;;;4938187;28;20057;-88
2024/02/03 09:21:59;;;;;;;1.55;0.47;;;12.60;99.90;;;;;;4933782;28;20054;-87
2024/02/03 09:24:28;;;;;;;0.25;0.20;;;12.60;99.90;;;;;;4947955;28;20068;-88
2024/02/03 09:26:55;;;;;;;0.80;0.40;;;12.60;99.90;;;;;;4952415;28;20077;-87
2024/02/03 09:29:22;;;;;;;1.65;0.60;;;12.70;99.90;;;;;;4966499;28;20050;-87
2024/02/03 09:31:51;;;;;;;1.15;0.57;;;12.70;99.90;;;;;;4956460;28;20050;-87
2024/02/03 09:34:18;;;;;;;1.15;0.52;;;12.70;99.90;;;;;;4976023;28;20116;-87
2024/02/03 09:36:45;;;;;;;1.38;0.75;;;12.70;99.90;;;;;;4940307;28;20067;-87
2024/02/03 09:39:17;;;;;;;1.73;0.43;;;12.70;99.90;;;;;;4952789;28;20556;-87
2024/02/03 09:41:44;;;;;;;1.17;0.60;;;12.70;99.90;;;;;;4934450;28;20078;-91
2024/02/03 09:44:12;;;;;;;1.38;0.50;;;12.60;99.90;;;;;;4954871;28;20054;-89
2024/02/03 09:46:39;;;;;;;1.42;0.90;;;12.70;99.90;;;;;;4964436;28;20051;-88
2024/02/03 09:49:07;;;;;;;2.58;0.70;;;12.60;99.90;;;;;;4968541;28;20121;-88
2024/02/03 09:51:35;;;;;;;0.73;0.50;;;12.60;99.90;;;;;;4950330;28;20043;-87
2024/02/03 09:54:02;;;;;;;2.08;0.63;;;12.60;99.90;;;;;;4945381;28;20402;-88
2024/02/03 09:56:29;;;;;;;0.80;0.50;;;12.60;99.90;;;;;;4942549;28;20065;-88
2024/02/03 09:58:56;;;;;;;2.13;0.52;;;12.60;99.90;;;;;;4937262;28;20057;-87
2024/02/03 10:01:23;;;;;;;0.73;0.50;;;12.60;99.90;;;;;;4946424;28;20092;-86
2024/02/03 10:03:57;;;;;;;0.90;0.40;;;12.60;99.90;;;;;;4946843;28;20050;-87
2024/02/03 10:06:24;;;;;;;1.58;0.40;;;12.60;99.90;;;;;;4934182;28;20078;-88
2024/02/03 10:08:53;;;;;;;1.38;0.50;;;12.70;99.90;;;;;;4967216;28;20050;-86
2024/02/03 10:11:20;;;;;;;1.23;0.50;;;12.70;99.90;;;;;;4967168;28;20161;-87
2024/02/03 10:14:08;;;;;;;1.67;0.50;;;12.70;99.90;;;;;;4938587;28;20201;-87
2024/02/03 10:16:46;;;;;;;0.70;0.50;;;12.70;99.90;;;;;;4953848;28;20530;-87
2024/02/03 10:19:14;;;;;;;1.73;0.55;;;12.80;99.90;;;;;;4950934;28;20177;-87
2024/02/03 10:21:41;;;;;;;0.50;0.40;;;12.80;99.90;;;;;;4935826;28;20109;-88
2024/02/03 10:24:08;;;;;;;0.63;0.50;;;12.80;99.90;;;;;;4940549;28;20058;-87
2024/02/03 10:26:35;;;;;;;2.20;0.40;;;12.80;99.90;;;;;;4951154;28;20046;-87
2024/02/03 10:29:03;;;;;;;0.63;0.40;;;12.80;99.90;;;;;;4948870;28;20113;-87
2024/02/03 10:31:30;;;;;;;0.40;0.30;;;12.90;99.90;;;;;;4967893;28;20061;-87
2024/02/03 10:34:04;;;;;;;0.40;0.40;;;12.90;99.90;;;;;;4937693;28;20341;-87
2024/02/03 10:36:31;;;;;;;0.98;0.57;;;12.90;99.90;;;;;;4964453;28;20510;-88
2024/02/03 10:38:58;;;;;;;0.60;0.47;;;12.90;99.90;;;;;;4958153;28;20411;-87
2024/02/03 10:41:27;;;;;;;0.45;0.43;;;12.90;99.90;;;;;;4967951;28;20115;-88
2024/02/03 10:43:55;;;;;;;0.75;0.40;;;12.90;99.90;;;;;;4976615;28;20078;-87
2024/02/03 10:46:23;;;;;;;0.60;0.40;;;13.00;99.90;;;;;;4967174;28;20054;-88
2024/02/03 10:48:50;;;;;;;0.57;0.40;;;13.00;99.90;;;;;;4938834;28;20043;-89
2024/02/03 10:51:23;;;;;;;1.55;0.73;;;13.00;99.90;;;;;;4954593;28;20042;-90
2024/02/03 10:53:56;;;;;;;1.35;0.50;;;13.00;99.90;;;;;;4941316;28;20089;-88
2024/02/03 10:56:24;;;;;;;1.00;0.28;;;13.00;99.90;;;;;;4937139;28;20055;-89
2024/02/03 10:58:53;;;;;;;0.30;0.22;;;13.10;99.90;;;;;;4946543;28;20051;-89
2024/02/03 11:01:23;;;;;;;1.08;0.57;;;13.10;99.90;;;;;;4968398;28;20058;-89
2024/02/03 11:03:51;;;;;;;0.63;0.38;;;13.10;99.90;;;;;;4949402;28;20062;-88
2024/02/03 11:06:27;;;;;;;1.27;0.90;;;13.10;99.90;;;;;;4957333;28;20085;-87
2024/02/03 11:09:15;;;;;;;1.20;0.52;;;13.20;99.90;;;;;;4951064;28;20117;-88
2024/02/03 11:11:47;;;;;;;1.08;0.65;;;13.20;99.90;;;;;;4979079;28;20097;-88
2024/02/03 11:14:19;;;;;;;0.45;0.40;;;13.30;99.90;;;;;;4955777;28;20178;-86
2024/02/03 11:16:58;;;;;;;0.57;0.30;;;13.30;99.90;;;;;;4956628;28;20169;-88
2024/02/03 11:19:31;;;;;;;1.95;0.52;;;13.30;99.90;;;;;;4946615;28;20050;-87
2024/02/03 11:22:00;;;;;;;1.08;0.55;;;13.30;99.90;;;;;;4956322;28;20061;-88
2024/02/03 11:24:27;;;;;;;0.50;0.40;;;13.40;99.90;;;;;;4956301;28;20182;-87
2024/02/03 11:27:13;;;;;;;0.73;0.28;;;13.40;99.90;;;;;;4954203;28;20137;-87
2024/02/03 11:29:40;;;;;;;0.63;0.40;;;13.50;99.90;;;;;;4965874;28;21309;-87
2024/02/03 11:32:07;;;;;;;0.30;0.30;;;13.50;99.90;;;;;;4952017;28;20081;-87
2024/02/03 11:34:35;;;;;;;0.35;0.32;;;13.50;99.90;;;;;;4930122;28;20053;-87
2024/02/03 11:37:04;;;;;;;1.50;0.40;;;13.60;99.90;;;;;;4948275;28;20551;-87
2024/02/03 11:39:33;;;;;;;0.63;0.45;;;13.70;99.90;;;;;;4937756;28;20053;-86
2024/02/03 11:42:05;;;;;;;1.50;0.90;;;13.80;99.90;;;;;;4939037;28;20050;-86
2024/02/03 11:44:48;;;;;;;0.95;0.40;;;13.90;99.90;;;;;;4952370;28;20064;-87
2024/02/03 11:47:19;;;;;;;0.85;0.40;;;14.10;99.90;;;;;;4961541;28;20105;-85
2024/02/03 11:49:47;;;;;;;0.50;0.20;;;14.10;99.90;;;;;;4971231;28;20057;-87
2024/02/03 11:52:15;;;;;;;0.73;0.52;;;14.20;99.90;;;;;;4973222;28;20054;-87
2024/02/03 11:54:42;;;;;;;0.85;0.60;;;14.20;99.90;;;;;;4936630;28;20050;-87
2024/02/03 11:57:10;;;;;;;0.60;0.40;;;14.20;99.90;;;;;;4952993;28;20059;-86
2024/02/03 11:59:38;;;;;;;0.40;0.40;;;14.20;99.90;;;;;;4955809;28;20545;-87
2024/02/03 12:02:05;;;;;;;0.85;0.68;;;14.10;99.90;;;;;;4956549;28;20057;-88
2024/02/03 12:04:33;;;;;;;0.93;0.50;;;14.10;99.90;;;;;;4949799;28;20089;-87
2024/02/03 12:07:01;;;;;;;1.17;0.50;;;14.00;99.90;;;;;;4957754;28;20082;-88
2024/02/03 12:09:28;;;;;;;0.47;0.47;;;13.90;99.90;;;;;;4937419;28;20099;-87
2024/02/03 12:11:58;;;;;;;1.48;0.40;;;13.80;99.90;;;;;;4956505;28;20054;-87
2024/02/03 12:14:29;;;;;;;0.60;0.30;;;13.70;99.90;;;;;;4955652;28;20081;-87
2024/02/03 12:16:57;;;;;;;0.52;0.30;;;13.60;99.90;;;;;;4948198;28;20087;-87
2024/02/03 12:19:24;;;;;;;0.75;0.40;;;13.50;99.90;;;;;;4939719;28;20051;-87
2024/02/03 12:21:52;;;;;;;1.15;0.70;;;13.50;99.90;;;;;;4956932;28;20054;-86
2024/02/03 12:24:21;;;;;;;0.60;0.40;;;13.50;99.90;;;;;;4969191;28;20295;-86
2024/02/03 12:26:48;;;;;;;0.35;0.30;;;13.50;99.90;;;;;;4938094;28;20117;-87
2024/02/03 12:29:17;;;;;;;0.93;0.50;;;13.50;99.90;;;;;;4945530;28;20486;-88
2024/02/03 12:31:44;;;;;;;1.05;0.55;;;13.50;99.90;;;;;;4955948;28;20058;-87
2024/02/03 12:34:11;;;;;;;0.60;0.30;;;13.60;99.90;;;;;;4937954;28;20054;-88
2024/02/03 12:36:39;;;;;;;0.80;0.65;;;13.70;99.90;;;;;;4943609;28;20058;-86
2024/02/03 12:39:09;;;;;;;0.60;0.50;;;13.80;99.90;;;;;;4973988;28;20153;-88
2024/02/03 12:41:36;;;;;;;0.38;0.30;;;13.90;99.90;;;;;;4941657;28;20536;-88
2024/02/03 12:44:04;;;;;;;0.75;0.30;;;13.90;99.90;;;;;;4958423;28;20050;-89
2024/02/03 12:46:31;;;;;;;0.50;0.30;;;14.10;99.90;;;;;;4957373;28;20051;-88
2024/02/03 12:48:58;;;;;;;0.77;0.30;;;14.10;99.10;;;;;;4953516;28;20126;-88
2024/02/03 12:51:28;;;;;;;2.28;0.40;;;14.10;99.90;;;;;;4957829;28;20118;-88
2024/02/03 12:53:57;;;;;;;0.60;0.40;;;14.10;99.90;;;;;;4968870;28;20054;-87